Airfield :







YOU CAN JOIN US ON...

 
LOGIN :

Register | Disclaimer

   EN    FR    IT 

 









Legend :    VFR   Marginal VFR   IFR   Intensive IFR   Very Intensive IFR
Visi :
Ceiling :
>= 8 km
>= 3000ft
5 to 8 km
1000 to 3000 ft
1500m to 5 km
500 to 1000 ft
800 to 1500m
200 to 500 ft
< 800m
< 200 ft
Symbols :   Thunderstorms  Fog  Heavy snow  Heavy precipitations  Wind > 20 kt






- Airport Elevation : 342 ft


KCON - Concord Municipal

CURRENT METAR :
  • 200251Z AUTO 17014G18KT 10SM OVC044 10/01 A3001 RMK AO2 SLP164 60000 T01000006 50001

EXPIRED METARs :
  • 200151Z AUTO 17011KT 10SM OVC046 11/01 A3002 RMK AO2 SLP168 T01060006
  • 200051Z AUTO 14005KT 10SM OVC050 10/02 A3003 RMK AO2 RAB27E39 SLP171 P0000 T01000022
  • 192351Z AUTO 15009KT 10SM SCT075 SCT090 OVC110 11/02 A3001 RMK AO2 SLP163 T01060022 10156 20100 58004
  • 192251Z AUTO 14013G20KT 10SM CLR 11/03 A3001 RMK AO2 SLP164 T01110028

TAF KCON
Valid from the 20 at 00:00 until the 21 at 00:00 UTC


192345Z 2000/2024 15008KT P6SM BKN100
FM200700 VRB03KT P6SM -RA OVC025
FM201100 22004KT 4SM -RA BR OVC012
FM201600 27010G20KT P6SM BKN050
FM202100 26010G18KT P6SM BKN050
KZBW FIR / North America



MET'MAP, your aeronautical weather chart ! - Copyright ORBIFLY December 2007 - Disclaimer

ORBIFLY MET'MAP TEAM :

Programming & Development : Alexandra Zaïnal
Original concept : Baudouin d'Aumeries
Technical & hardware support : Manuel Goepfert
Assistance : Marc-Olivier Méhu




SOURCES & CREDITS :

   NOAA